Time;durP1;ratioP1;P1;durP2;ratioP2;P2;SDS_P1;SDS_P2;PMS_P1;PMS_P2;Temp;Humidity;BMP_temperature;BMP_pressure;BME280_temperature;BME280_humidity;BME280_pressure;Samples;Min_cycle;Max_cycle;Signal;HPM_P1;HPM_P2
2023/07/21 00:01:05;;;;;;;1.85;1.30;;;;;;;;;;8239468;28;20124;-72
2023/07/21 00:05:06;;;;;;;1.58;1.23;;;;;;;;;;8240235;28;20065;-72
2023/07/21 00:09:07;;;;;;;1.75;1.20;;;;;;;;;;8220683;28;20053;-72
2023/07/21 00:13:07;;;;;;;1.83;1.52;;;;;;;;;;8239564;28;20026;-72
2023/07/21 00:17:08;;;;;;;2.28;1.40;;;;;;;;;;8236356;28;20041;-71
2023/07/21 00:21:09;;;;;;;1.48;1.30;;;;;;;;;;8239027;28;20975;-71
2023/07/21 00:25:10;;;;;;;4.63;2.30;;;;;;;;;;8241721;28;20026;-72
2023/07/21 00:29:12;;;;;;;1.65;1.40;;;;;;;;;;8218189;28;21038;-72
2023/07/21 00:33:12;;;;;;;1.60;1.50;;;;;;;;;;8237705;28;20049;-72
2023/07/21 00:37:14;;;;;;;2.47;1.40;;;;;;;;;;8237832;28;20023;-71
2023/07/21 00:41:15;;;;;;;8.38;1.30;;;;;;;;;;8239918;28;20137;-71
2023/07/21 00:45:15;;;;;;;1.42;1.33;;;;;;;;;;8238998;28;20025;-72
2023/07/21 00:49:16;;;;;;;2.85;1.30;;;;;;;;;;8235575;28;20032;-72
2023/07/21 00:53:16;;;;;;;4.97;1.30;;;;;;;;;;8239052;28;20018;-72
2023/07/21 00:57:16;;;;;;;1.98;1.52;;;;;;;;;;8238013;28;20038;-72
2023/07/21 01:01:17;;;;;;;1.83;1.50;;;;;;;;;;8236939;28;20845;-73
2023/07/21 01:05:17;;;;;;;2.92;1.30;;;;;;;;;;8234689;28;20045;-72
2023/07/21 01:09:19;;;;;;;1.63;1.25;;;;;;;;;;8234282;28;20087;-72
2023/07/21 01:13:20;;;;;;;2.00;1.30;;;;;;;;;;8236880;28;20489;-72
2023/07/21 01:17:20;;;;;;;1.85;1.25;;;;;;;;;;8227945;28;20057;-72
2023/07/21 01:21:30;;;;;;;2.33;1.15;;;;;;;;;;8239523;28;20030;-72
2023/07/21 01:25:32;;;;;;;1.95;1.40;;;;;;;;;;8237451;28;20150;-73
2023/07/21 01:29:37;;;;;;;1.55;1.30;;;;;;;;;;8235272;28;20112;-72
2023/07/21 01:33:37;;;;;;;1.38;1.23;;;;;;;;;;8239328;28;20075;-72
2023/07/21 01:37:38;;;;;;;3.42;1.40;;;;;;;;;;8237341;28;20073;-72
2023/07/21 01:41:38;;;;;;;1.73;1.50;;;;;;;;;;8239974;28;20509;-72
2023/07/21 01:45:39;;;;;;;1.95;1.58;;;;;;;;;;8236689;28;20065;-72
2023/07/21 01:49:39;;;;;;;3.55;1.40;;;;;;;;;;8235389;28;20037;-72
2023/07/21 01:53:39;;;;;;;1.98;1.58;;;;;;;;;;8240138;28;21548;-72
2023/07/21 01:57:46;;;;;;;1.98;1.25;;;;;;;;;;8239189;28;20026;-72
2023/07/21 02:01:46;;;;;;;2.20;1.40;;;;;;;;;;8237555;28;20046;-72
2023/07/21 02:05:48;;;;;;;2.47;1.40;;;;;;;;;;8238551;28;20026;-72
2023/07/21 02:09:48;;;;;;;2.30;1.27;;;;;;;;;;8235594;28;20088;-73
2023/07/21 02:13:48;;;;;;;1.25;1.20;;;;;;;;;;8234181;28;20022;-72
2023/07/21 02:17:49;;;;;;;1.90;1.30;;;;;;;;;;8237858;28;20103;-73
2023/07/21 02:22:08;;;;;;;1.77;1.20;;;;;;;;;;8244441;28;20546;-72
2023/07/21 02:26:27;;;;;;;1.35;1.23;;;;;;;;;;8242962;28;21557;-72
2023/07/21 02:30:46;;;;;;;1.40;1.30;;;;;;;;;;8241211;28;20042;-72
2023/07/21 02:35:06;;;;;;;2.95;1.40;;;;;;;;;;8242196;28;20068;-72
2023/07/21 02:39:25;;;;;;;4.28;1.40;;;;;;;;;;8243400;28;20031;-72
2023/07/21 02:43:44;;;;;;;2.50;1.40;;;;;;;;;;8242251;28;20023;-72
2023/07/21 02:48:03;;;;;;;2.53;1.33;;;;;;;;;;8240753;28;20971;-72
2023/07/21 02:52:23;;;;;;;2.22;1.50;;;;;;;;;;8240875;28;20030;-72
2023/07/21 02:56:41;;;;;;;3.17;1.60;;;;;;;;;;8243633;28;20050;-72
2023/07/21 03:01:03;;;;;;;5.28;1.48;;;;;;;;;;8240920;28;20125;-72
2023/07/21 03:05:22;;;;;;;2.45;1.40;;;;;;;;;;8243202;28;20042;-72
2023/07/21 03:09:41;;;;;;;2.05;1.30;;;;;;;;;;8240878;28;20022;-72
2023/07/21 03:14:00;;;;;;;2.72;1.52;;;;;;;;;;8240465;28;20085;-72
2023/07/21 03:18:19;;;;;;;1.52;1.23;;;;;;;;;;8240062;28;20041;-72
2023/07/21 03:22:37;;;;;;;1.98;1.60;;;;;;;;;;8241498;28;20815;-72
2023/07/21 03:26:56;;;;;;;2.63;1.40;;;;;;;;;;8243030;28;20064;-72
2023/07/21 03:31:15;;;;;;;2.53;1.58;;;;;;;;;;8241128;28;20806;-72
2023/07/21 03:35:34;;;;;;;1.95;1.35;;;;;;;;;;8243016;28;20128;-72
2023/07/21 03:39:53;;;;;;;5.43;1.40;;;;;;;;;;8241831;28;20037;-72
2023/07/21 03:44:13;;;;;;;1.65;1.23;;;;;;;;;;8241347;28;20026;-72
2023/07/21 03:48:32;;;;;;;2.33;1.48;;;;;;;;;;8238559;28;20053;-72
2023/07/21 03:52:51;;;;;;;4.35;1.48;;;;;;;;;;8239112;28;20030;-72
2023/07/21 03:57:10;;;;;;;1.73;1.35;;;;;;;;;;8242395;28;20032;-72
2023/07/21 04:01:29;;;;;;;1.65;1.45;;;;;;;;;;8241571;28;20176;-72
2023/07/21 04:05:48;;;;;;;3.85;1.30;;;;;;;;;;8238939;28;20145;-72
2023/07/21 04:10:06;;;;;;;2.40;1.30;;;;;;;;;;8240271;28;20415;-72
2023/07/21 04:14:25;;;;;;;1.40;1.23;;;;;;;;;;8240838;28;20019;-72
2023/07/21 04:18:44;;;;;;;2.20;1.30;;;;;;;;;;8237807;28;20041;-72
2023/07/21 04:23:03;;;;;;;4.25;1.30;;;;;;;;;;8239092;28;20033;-72
2023/07/21 04:27:22;;;;;;;1.85;1.30;;;;;;;;;;8239929;28;20022;-72
2023/07/21 04:31:41;;;;;;;2.85;1.40;;;;;;;;;;8238345;28;20037;-68
2023/07/21 04:36:00;;;;;;;3.35;1.70;;;;;;;;;;8234385;28;20479;-69
2023/07/21 04:40:20;;;;;;;2.40;1.40;;;;;;;;;;8236812;28;20034;-69
2023/07/21 04:44:38;;;;;;;4.82;1.52;;;;;;;;;;8233535;28;20468;-69
2023/07/21 04:48:58;;;;;;;3.45;1.45;;;;;;;;;;8238410;28;20036;-69
2023/07/21 04:53:17;;;;;;;3.88;1.80;;;;;;;;;;8238317;28;20108;-68
2023/07/21 04:57:36;;;;;;;2.00;1.52;;;;;;;;;;8236910;28;20040;-69
2023/07/21 05:01:56;;;;;;;1.83;1.48;;;;;;;;;;8237901;28;20065;-69
2023/07/21 05:06:15;;;;;;;1.85;1.40;;;;;;;;;;8236365;28;20041;-69
2023/07/21 05:10:35;;;;;;;2.40;1.50;;;;;;;;;;8239917;28;20116;-69
2023/07/21 05:14:54;;;;;;;1.58;1.48;;;;;;;;;;8238767;28;20142;-68
2023/07/21 05:19:13;;;;;;;4.40;1.60;;;;;;;;;;8238269;28;20089;-68
2023/07/21 05:23:32;;;;;;;5.85;1.70;;;;;;;;;;8236873;28;20030;-68
2023/07/21 05:27:50;;;;;;;1.75;1.60;;;;;;;;;;8238007;28;21147;-69
2023/07/21 05:32:09;;;;;;;8.88;1.70;;;;;;;;;;8237417;28;20185;-69
2023/07/21 05:36:28;;;;;;;2.75;1.45;;;;;;;;;;8235077;28;20030;-69
2023/07/21 05:40:47;;;;;;;3.42;1.80;;;;;;;;;;8238965;28;20092;-69
2023/07/21 05:45:06;;;;;;;4.40;1.50;;;;;;;;;;8235794;28;20144;-69
2023/07/21 05:49:25;;;;;;;4.18;1.40;;;;;;;;;;8235244;28;20152;-69
2023/07/21 05:53:44;;;;;;;3.97;1.67;;;;;;;;;;8237024;28;20032;-69
2023/07/21 05:58:03;;;;;;;5.68;1.80;;;;;;;;;;8242657;28;20034;-69
2023/07/21 06:02:22;;;;;;;1.60;1.50;;;;;;;;;;8242186;28;20034;-70
2023/07/21 06:06:41;;;;;;;4.93;1.63;;;;;;;;;;8241842;28;20037;-70
2023/07/21 06:11:00;;;;;;;4.97;1.50;;;;;;;;;;8240998;28;20041;-69
2023/07/21 06:15:19;;;;;;;6.35;1.65;;;;;;;;;;8243431;28;20092;-69
2023/07/21 06:19:38;;;;;;;6.55;1.98;;;;;;;;;;8240838;28;20068;-70
2023/07/21 06:23:57;;;;;;;6.22;1.65;;;;;;;;;;8243331;28;20474;-69
2023/07/21 06:28:16;;;;;;;9.93;1.80;;;;;;;;;;8243756;28;20030;-70
2023/07/21 06:32:35;;;;;;;3.58;1.65;;;;;;;;;;8240070;28;20943;-70
2023/07/21 06:36:54;;;;;;;5.10;1.60;;;;;;;;;;8239950;28;20043;-69
2023/07/21 06:41:13;;;;;;;2.90;1.65;;;;;;;;;;8242801;28;20022;-70
2023/07/21 06:45:33;;;;;;;4.60;1.70;;;;;;;;;;8242548;28;20040;-70
2023/07/21 06:49:52;;;;;;;11.35;1.60;;;;;;;;;;8240043;28;20053;-73
2023/07/21 06:54:11;;;;;;;3.72;1.58;;;;;;;;;;8241002;28;20033;-73
2023/07/21 06:58:30;;;;;;;7.38;1.70;;;;;;;;;;8240147;28;20498;-73
2023/07/21 07:02:49;;;;;;;5.47;1.55;;;;;;;;;;8241795;28;20107;-73
2023/07/21 07:07:08;;;;;;;5.45;1.67;;;;;;;;;;8239242;28;20038;-73
2023/07/21 07:11:27;;;;;;;5.75;1.52;;;;;;;;;;8241075;28;20220;-73
2023/07/21 07:15:47;;;;;;;9.77;1.58;;;;;;;;;;8242993;28;20030;-73
2023/07/21 07:20:09;;;;;;;4.80;1.50;;;;;;;;;;8239882;28;20072;-74
2023/07/21 07:24:28;;;;;;;3.50;1.40;;;;;;;;;;8240614;28;20031;-73
2023/07/21 07:28:47;;;;;;;2.25;1.20;;;;;;;;;;8243247;28;20116;-73
2023/07/21 07:33:06;;;;;;;4.15;1.30;;;;;;;;;;8240916;28;20085;-73
2023/07/21 07:37:25;;;;;;;3.38;1.30;;;;;;;;;;8242854;28;20083;-73
2023/07/21 07:41:45;;;;;;;3.50;1.20;;;;;;;;;;8245017;28;20065;-73
2023/07/21 07:46:07;;;;;;;2.05;1.20;;;;;;;;;;8245019;28;20395;-73
2023/07/21 07:50:27;;;;;;;1.83;1.20;;;;;;;;;;8243721;28;20390;-73
2023/07/21 07:54:46;;;;;;;4.25;1.20;;;;;;;;;;8244119;28;20026;-73
2023/07/21 07:59:06;;;;;;;1.88;1.27;;;;;;;;;;8241638;28;20713;-73
2023/07/21 08:03:25;;;;;;;1.60;1.30;;;;;;;;;;8242909;28;20150;-73
2023/07/21 08:07:44;;;;;;;1.42;1.30;;;;;;;;;;8242721;28;20034;-73
2023/07/21 08:12:03;;;;;;;2.80;1.23;;;;;;;;;;8244631;28;20486;-73
2023/07/21 08:16:22;;;;;;;2.05;1.25;;;;;;;;;;8242667;28;20395;-73
2023/07/21 08:20:42;;;;;;;5.70;1.42;;;;;;;;;;8241597;28;20034;-73
2023/07/21 08:25:00;;;;;;;5.00;1.40;;;;;;;;;;8244314;28;21002;-73
2023/07/21 08:29:19;;;;;;;2.22;1.20;;;;;;;;;;8242613;28;20169;-72
2023/07/21 08:33:38;;;;;;;4.53;1.38;;;;;;;;;;8244391;28;20037;-73
2023/07/21 08:37:57;;;;;;;2.45;1.30;;;;;;;;;;8242598;28;20076;-73
2023/07/21 08:42:16;;;;;;;5.65;1.40;;;;;;;;;;8243181;28;20655;-73
2023/07/21 08:46:35;;;;;;;1.88;1.10;;;;;;;;;;8238499;28;20937;-73
2023/07/21 08:50:57;;;;;;;2.28;1.40;;;;;;;;;;8241626;28;20026;-72
2023/07/21 08:55:15;;;;;;;4.80;1.50;;;;;;;;;;8244015;28;20165;-73
2023/07/21 08:59:34;;;;;;;2.35;1.27;;;;;;;;;;8242828;28;20298;-73
2023/07/21 09:03:53;;;;;;;3.17;1.33;;;;;;;;;;8241672;28;20045;-73
2023/07/21 09:08:12;;;;;;;2.35;1.30;;;;;;;;;;8239687;28;20022;-73
2023/07/21 09:12:31;;;;;;;1.30;1.20;;;;;;;;;;8239485;28;20598;-73
2023/07/21 09:16:51;;;;;;;11.38;2.03;;;;;;;;;;8239729;28;20029;-73
2023/07/21 09:21:10;;;;;;;5.13;1.45;;;;;;;;;;8238262;28;20671;-73
2023/07/21 09:25:29;;;;;;;7.50;1.38;;;;;;;;;;8237919;28;20033;-72
2023/07/21 09:29:48;;;;;;;2.25;1.30;;;;;;;;;;8238811;28;20026;-73
2023/07/21 09:34:08;;;;;;;9.13;1.20;;;;;;;;;;8240919;28;20033;-72
2023/07/21 09:38:26;;;;;;;6.03;1.10;;;;;;;;;;8242798;28;20275;-73
2023/07/21 09:42:46;;;;;;;2.95;1.27;;;;;;;;;;8238990;28;20036;-72
2023/07/21 09:47:05;;;;;;;4.95;1.25;;;;;;;;;;8236423;28;20046;-73
2023/07/21 09:51:26;;;;;;;1.80;1.30;;;;;;;;;;8238284;28;20025;-72
2023/07/21 09:55:45;;;;;;;2.28;1.27;;;;;;;;;;8237559;28;20105;-73
2023/07/21 10:00:12;;;;;;;1.38;1.27;;;;;;;;;;8238424;28;20032;-73
2023/07/21 10:04:31;;;;;;;2.42;1.27;;;;;;;;;;8240103;28;20081;-72
2023/07/21 10:08:50;;;;;;;5.10;1.55;;;;;;;;;;8239062;28;20030;-73
2023/07/21 10:13:09;;;;;;;5.93;1.50;;;;;;;;;;8239656;28;20974;-73
2023/07/21 10:17:28;;;;;;;4.35;1.25;;;;;;;;;;8237601;28;20041;-72
2023/07/21 10:21:48;;;;;;;3.03;1.50;;;;;;;;;;8237198;28;20663;-72
2023/07/21 10:26:07;;;;;;;1.42;1.10;;;;;;;;;;8236673;28;20030;-72
2023/07/21 10:30:26;;;;;;;2.45;1.30;;;;;;;;;;8237376;28;20108;-72
2023/07/21 10:34:45;;;;;;;1.52;1.38;;;;;;;;;;8239007;28;20066;-72
2023/07/21 10:39:04;;;;;;;2.80;1.20;;;;;;;;;;8238740;28;20033;-73
2023/07/21 10:43:23;;;;;;;2.22;1.40;;;;;;;;;;8243459;28;20026;-73
2023/07/21 10:47:42;;;;;;;1.70;1.15;;;;;;;;;;8244489;28;20066;-72
2023/07/21 10:52:01;;;;;;;1.40;1.30;;;;;;;;;;8242485;28;20029;-73
2023/07/21 10:56:21;;;;;;;3.15;1.20;;;;;;;;;;8244368;28;20933;-72
2023/07/21 11:00:40;;;;;;;1.15;1.13;;;;;;;;;;8238441;28;20107;-73
2023/07/21 11:04:59;;;;;;;1.38;1.23;;;;;;;;;;8245043;28;20058;-73
2023/07/21 11:09:19;;;;;;;3.47;1.10;;;;;;;;;;8244201;28;20027;-73
2023/07/21 11:13:41;;;;;;;2.83;1.40;;;;;;;;;;8243401;28;20076;-74
2023/07/21 11:17:42;;;;;;;3.13;1.27;;;;;;;;;;8240309;28;20575;-73
2023/07/21 11:21:42;;;;;;;3.40;1.30;;;;;;;;;;8239369;28;20061;-72
2023/07/21 11:25:58;;;;;;;2.33;1.35;;;;;;;;;;8245740;28;20061;-73
2023/07/21 11:30:00;;;;;;;2.58;1.23;;;;;;;;;;8232516;28;20213;-74
2023/07/21 11:34:01;;;;;;;2.92;1.23;;;;;;;;;;8240485;28;20030;-72
2023/07/21 11:38:01;;;;;;;1.73;1.20;;;;;;;;;;8237001;28;20032;-74
2023/07/21 11:42:02;;;;;;;4.85;1.30;;;;;;;;;;8235560;28;20459;-73
2023/07/21 11:46:02;;;;;;;6.65;1.60;;;;;;;;;;8234616;28;20884;-73
2023/07/21 11:50:05;;;;;;;2.40;1.20;;;;;;;;;;8235756;28;20052;-73
2023/07/21 11:54:16;;;;;;;3.10;1.30;;;;;;;;;;8238139;28;20022;-73
2023/07/21 11:58:17;;;;;;;6.55;1.10;;;;;;;;;;8238286;28;20481;-74
2023/07/21 12:02:17;;;;;;;3.60;1.20;;;;;;;;;;8216355;28;20876;-74
2023/07/21 12:06:18;;;;;;;4.07;1.48;;;;;;;;;;8235432;28;20292;-73
2023/07/21 12:10:18;;;;;;;5.47;1.30;;;;;;;;;;8234834;28;20505;-74
2023/07/21 12:14:18;;;;;;;1.75;1.38;;;;;;;;;;8233937;28;20670;-74
2023/07/21 12:18:19;;;;;;;2.83;1.30;;;;;;;;;;8236773;28;20042;-74
2023/07/21 12:22:19;;;;;;;3.13;1.27;;;;;;;;;;8237178;28;20714;-74
2023/07/21 12:26:19;;;;;;;1.70;1.30;;;;;;;;;;8233416;28;20238;-73
2023/07/21 12:30:20;;;;;;;1.90;1.35;;;;;;;;;;8233587;28;20029;-73
2023/07/21 12:34:20;;;;;;;3.30;1.40;;;;;;;;;;8232259;28;20024;-73
2023/07/21 12:38:20;;;;;;;4.85;1.50;;;;;;;;;;8233836;28;20768;-73
2023/07/21 12:42:21;;;;;;;3.30;1.50;;;;;;;;;;8237284;28;20136;-73
2023/07/21 12:46:21;;;;;;;5.10;1.70;;;;;;;;;;8235439;28;20046;-73
2023/07/21 12:50:21;;;;;;;3.92;1.50;;;;;;;;;;8221604;28;21227;-73
2023/07/21 12:54:23;;;;;;;3.63;1.83;;;;;;;;;;8237330;28;20857;-73
2023/07/21 12:58:23;;;;;;;4.00;1.40;;;;;;;;;;8217605;28;20062;-73
2023/07/21 13:02:23;;;;;;;3.55;1.50;;;;;;;;;;8235715;28;20041;-72
2023/07/21 13:06:25;;;;;;;2.80;1.60;;;;;;;;;;8213498;28;20384;-73
2023/07/21 13:10:25;;;;;;;2.67;1.52;;;;;;;;;;8234132;28;20026;-72
2023/07/21 13:14:25;;;;;;;3.80;1.30;;;;;;;;;;8236185;28;20026;-73
2023/07/21 13:18:25;;;;;;;2.03;1.20;;;;;;;;;;8233580;28;20065;-73
2023/07/21 13:22:26;;;;;;;1.80;1.40;;;;;;;;;;8238724;28;20764;-74
2023/07/21 13:26:26;;;;;;;4.00;1.27;;;;;;;;;;8221152;28;21016;-73
2023/07/21 13:30:26;;;;;;;2.55;1.50;;;;;;;;;;8216315;28;20519;-75
2023/07/21 13:34:27;;;;;;;2.67;1.45;;;;;;;;;;8233048;28;20536;-76
2023/07/21 13:38:30;;;;;;;1.20;1.10;;;;;;;;;;8233377;28;20046;-76
2023/07/21 13:42:30;;;;;;;2.15;1.27;;;;;;;;;;8219954;28;20049;-75
2023/07/21 13:46:30;;;;;;;1.27;1.10;;;;;;;;;;8234182;28;20038;-74
2023/07/21 13:50:30;;;;;;;2.47;1.10;;;;;;;;;;8236389;28;20763;-76
2023/07/21 13:54:31;;;;;;;1.45;1.23;;;;;;;;;;8238715;28;20352;-75
2023/07/21 13:58:32;;;;;;;2.53;1.50;;;;;;;;;;8227349;28;20030;-76
2023/07/21 14:02:35;;;;;;;1.30;1.20;;;;;;;;;;8236247;28;20398;-76
2023/07/21 14:06:37;;;;;;;;;;;;;;;;;;8236094;28;20034;-74
2023/07/21 14:10:37;;;;;;;2.30;1.35;;;;;;;;;;8237324;28;19953;-75
2023/07/21 14:14:37;;;;;;;1.55;1.30;;;;;;;;;;8235820;28;20033;-75
2023/07/21 14:18:38;;;;;;;2.15;1.20;;;;;;;;;;8242822;28;20050;-76
2023/07/21 14:22:38;;;;;;;3.17;1.87;;;;;;;;;;8243283;28;20034;-75
2023/07/21 14:26:38;;;;;;;3.20;1.30;;;;;;;;;;8231118;28;20288;-75
2023/07/21 14:30:38;;;;;;;1.50;1.30;;;;;;;;;;8241723;28;20038;-76
2023/07/21 14:34:39;;;;;;;1.30;1.20;;;;;;;;;;8241916;28;20718;-76
2023/07/21 14:38:39;;;;;;;2.92;1.52;;;;;;;;;;8223070;28;20029;-76
2023/07/21 14:42:39;;;;;;;2.85;1.23;;;;;;;;;;8245460;28;20026;-75
2023/07/21 14:46:40;;;;;;;1.73;1.50;;;;;;;;;;8242029;28;20487;-75
2023/07/21 14:50:40;;;;;;;1.55;1.30;;;;;;;;;;8241897;28;20026;-75
2023/07/21 14:54:40;;;;;;;2.38;1.70;;;;;;;;;;8244381;28;20759;-74
2023/07/21 14:58:40;;;;;;;2.78;1.40;;;;;;;;;;8241195;28;20022;-74
2023/07/21 15:02:41;;;;;;;3.60;1.30;;;;;;;;;;8240022;28;20042;-73
2023/07/21 15:06:41;;;;;;;1.30;1.17;;;;;;;;;;8225298;28;20027;-72
2023/07/21 15:10:41;;;;;;;1.58;1.20;;;;;;;;;;8239574;28;20113;-73
2023/07/21 15:14:41;;;;;;;1.23;1.10;;;;;;;;;;8234663;28;20088;-72
2023/07/21 15:18:41;;;;;;;1.20;1.10;;;;;;;;;;8236506;28;20612;-73
2023/07/21 15:22:45;;;;;;;1.33;1.10;;;;;;;;;;8237274;28;20030;-70
2023/07/21 15:26:45;;;;;;;2.63;1.20;;;;;;;;;;8235608;28;20695;-69
2023/07/21 15:30:46;;;;;;;2.38;1.20;;;;;;;;;;8234733;28;20056;-70
2023/07/21 15:34:46;;;;;;;4.50;1.27;;;;;;;;;;8236012;28;20917;-70
2023/07/21 15:38:46;;;;;;;1.80;1.20;;;;;;;;;;8234287;28;20348;-70
2023/07/21 15:42:47;;;;;;;1.80;1.25;;;;;;;;;;8234846;28;20516;-71
2023/07/21 15:46:47;;;;;;;3.13;1.38;;;;;;;;;;8233384;28;20437;-70
2023/07/21 15:50:47;;;;;;;3.40;1.17;;;;;;;;;;8234514;28;20526;-71
2023/07/21 15:54:48;;;;;;;1.60;1.20;;;;;;;;;;8233518;28;20137;-70
2023/07/21 15:58:49;;;;;;;2.53;1.15;;;;;;;;;;8234498;28;20109;-70
2023/07/21 16:02:49;;;;;;;1.83;1.08;;;;;;;;;;8233989;28;20034;-70
2023/07/21 16:06:49;;;;;;;1.13;1.10;;;;;;;;;;8236040;28;20032;-70
2023/07/21 16:10:49;;;;;;;2.78;1.00;;;;;;;;;;8237982;28;20077;-69
2023/07/21 16:14:49;;;;;;;1.25;1.15;;;;;;;;;;8216195;28;20022;-70
2023/07/21 16:18:50;;;;;;;2.72;1.00;;;;;;;;;;8235330;28;20037;-70
2023/07/21 16:22:50;;;;;;;1.42;1.27;;;;;;;;;;8231542;28;20561;-70
2023/07/21 16:26:50;;;;;;;2.17;1.33;;;;;;;;;;8233318;28;20098;-76
2023/07/21 16:30:54;;;;;;;1.40;1.20;;;;;;;;;;8234203;28;20038;-75
2023/07/21 16:34:54;;;;;;;1.20;1.10;;;;;;;;;;8226712;28;20778;-76
2023/07/21 16:38:54;;;;;;;1.95;1.10;;;;;;;;;;8234556;28;20024;-75
2023/07/21 16:42:54;;;;;;;3.25;1.58;;;;;;;;;;8235197;28;20049;-75
2023/07/21 16:46:55;;;;;;;2.70;1.02;;;;;;;;;;8236567;28;20054;-74
2023/07/21 16:50:55;;;;;;;1.33;1.20;;;;;;;;;;8236290;28;20505;-75
2023/07/21 16:54:55;;;;;;;1.88;1.10;;;;;;;;;;8235926;28;20022;-75
2023/07/21 16:58:56;;;;;;;1.10;1.00;;;;;;;;;;8234908;28;20123;-75
2023/07/21 17:02:56;;;;;;;2.78;1.13;;;;;;;;;;8236299;28;20932;-76
2023/07/21 17:06:56;;;;;;;1.00;1.00;;;;;;;;;;8236412;28;20123;-76
2023/07/21 17:10:58;;;;;;;1.35;1.00;;;;;;;;;;8235982;28;20038;-76
2023/07/21 17:14:59;;;;;;;128.80;11.25;;;;;;;;;;8234193;28;20025;-76
2023/07/21 17:18:59;;;;;;;3.13;1.23;;;;;;;;;;8218044;28;20030;-75
2023/07/21 17:22:59;;;;;;;2.47;1.23;;;;;;;;;;8234765;28;20036;-74
2023/07/21 17:27:03;;;;;;;4.18;1.30;;;;;;;;;;8232951;28;20029;-74
2023/07/21 17:31:04;;;;;;;3.20;1.40;;;;;;;;;;8231633;28;20041;-75
2023/07/21 17:35:04;;;;;;;3.60;1.30;;;;;;;;;;8235149;28;20486;-74
2023/07/21 17:39:05;;;;;;;1.88;1.13;;;;;;;;;;8233925;28;20042;-75
2023/07/21 17:43:05;;;;;;;1.30;1.20;;;;;;;;;;8229314;28;20659;-74
2023/07/21 17:47:06;;;;;;;5.78;1.27;;;;;;;;;;8233068;28;20147;-75
2023/07/21 17:51:06;;;;;;;1.33;1.10;;;;;;;;;;8240876;28;20462;-75
2023/07/21 17:55:07;;;;;;;2.08;1.30;;;;;;;;;;8236128;28;20021;-74
2023/07/21 17:59:07;;;;;;;2.10;1.08;;;;;;;;;;8243499;28;20040;-75
2023/07/21 18:03:08;;;;;;;2.00;1.10;;;;;;;;;;8246494;28;20037;-75
2023/07/21 18:07:08;;;;;;;1.20;1.10;;;;;;;;;;8242755;28;20100;-74
2023/07/21 18:11:09;;;;;;;3.80;1.17;;;;;;;;;;8237453;28;20478;-74
2023/07/21 18:15:09;;;;;;;1.77;1.10;;;;;;;;;;8242021;28;20056;-74
2023/07/21 18:19:10;;;;;;;3.07;1.10;;;;;;;;;;8245444;28;20117;-74
2023/07/21 18:23:10;;;;;;;1.27;1.00;;;;;;;;;;8244429;28;20939;-73
2023/07/21 18:27:10;;;;;;;2.40;1.38;;;;;;;;;;8224698;28;20541;-74
2023/07/21 18:31:10;;;;;;;1.35;1.20;;;;;;;;;;8245196;28;21110;-74
2023/07/21 18:35:10;;;;;;;1.63;1.20;;;;;;;;;;8244243;28;20524;-73
2023/07/21 18:39:11;;;;;;;1.08;1.00;;;;;;;;;;8244734;28;20335;-74
2023/07/21 18:43:11;;;;;;;4.43;1.20;;;;;;;;;;8242120;28;20030;-73
2023/07/21 18:47:12;;;;;;;1.23;1.13;;;;;;;;;;8242899;28;20034;-74
2023/07/21 18:51:12;;;;;;;1.77;1.20;;;;;;;;;;8244556;28;20729;-74
2023/07/21 18:55:12;;;;;;;3.58;1.40;;;;;;;;;;8245218;28;20038;-74
2023/07/21 18:59:12;;;;;;;5.20;1.40;;;;;;;;;;8243875;28;20045;-74
2023/07/21 19:03:13;;;;;;;2.95;1.30;;;;;;;;;;8238820;28;20991;-74
2023/07/21 19:07:13;;;;;;;1.50;1.40;;;;;;;;;;8238264;28;20026;-73
2023/07/21 19:11:21;;;;;;;3.75;1.40;;;;;;;;;;8240636;28;20036;-73
2023/07/21 19:15:21;;;;;;;3.95;1.33;;;;;;;;;;8236996;28;20029;-74
2023/07/21 19:19:22;;;;;;;8.40;1.33;;;;;;;;;;8222907;28;20778;-71
2023/07/21 19:23:22;;;;;;;2.88;1.52;;;;;;;;;;8238283;28;21220;-72
2023/07/21 19:27:22;;;;;;;3.03;1.50;;;;;;;;;;8239911;28;20037;-71
2023/07/21 19:31:22;;;;;;;2.30;1.25;;;;;;;;;;8240210;28;20038;-72
2023/07/21 19:35:22;;;;;;;1.60;1.20;;;;;;;;;;8238169;28;20018;-73
2023/07/21 19:39:23;;;;;;;2.15;1.42;;;;;;;;;;8239558;28;20029;-73
2023/07/21 19:43:23;;;;;;;2.60;1.40;;;;;;;;;;8239998;28;20037;-72
2023/07/21 19:47:24;;;;;;;3.70;1.50;;;;;;;;;;8234714;28;20033;-72
2023/07/21 19:51:24;;;;;;;2.10;1.20;;;;;;;;;;8236418;28;20026;-72
2023/07/21 19:55:24;;;;;;;1.42;1.25;;;;;;;;;;8233734;28;20221;-73
2023/07/21 19:59:24;;;;;;;1.38;1.25;;;;;;;;;;8237542;28;20064;-73
2023/07/21 20:03:25;;;;;;;1.33;1.00;;;;;;;;;;8236001;28;20038;-73
2023/07/21 20:07:25;;;;;;;1.80;1.13;;;;;;;;;;8238454;28;20030;-73
2023/07/21 20:11:25;;;;;;;2.70;1.13;;;;;;;;;;8238945;28;20014;-71
2023/07/21 20:15:25;;;;;;;2.40;1.20;;;;;;;;;;8236943;28;20032;-71
2023/07/21 20:19:26;;;;;;;1.25;1.17;;;;;;;;;;8236114;28;20278;-72
2023/07/21 20:23:27;;;;;;;1.40;1.10;;;;;;;;;;8221163;28;20075;-72
2023/07/21 20:27:27;;;;;;;1.52;1.27;;;;;;;;;;8235249;28;20037;-72
2023/07/21 20:31:27;;;;;;;3.27;1.30;;;;;;;;;;8232938;28;20735;-72
2023/07/21 20:35:27;;;;;;;1.73;1.42;;;;;;;;;;8230984;28;20790;-72
2023/07/21 20:39:28;;;;;;;4.43;1.40;;;;;;;;;;8233688;28;20030;-71
2023/07/21 20:43:28;;;;;;;3.00;1.40;;;;;;;;;;8234700;28;20080;-71
2023/07/21 20:47:28;;;;;;;1.90;1.23;;;;;;;;;;8236650;28;20593;-71
2023/07/21 20:51:28;;;;;;;2.38;1.30;;;;;;;;;;8215795;28;20077;-71
2023/07/21 20:55:29;;;;;;;2.63;1.40;;;;;;;;;;8236777;28;20026;-71
2023/07/21 20:59:29;;;;;;;1.65;1.20;;;;;;;;;;8230537;28;20085;-71
2023/07/21 21:03:29;;;;;;;2.15;1.25;;;;;;;;;;8229535;28;21443;-71
2023/07/21 21:07:29;;;;;;;3.40;1.38;;;;;;;;;;8236214;28;20034;-71
2023/07/21 21:11:29;;;;;;;1.97;1.30;;;;;;;;;;8223389;28;20101;-71
2023/07/21 21:15:29;;;;;;;2.17;1.30;;;;;;;;;;8233425;28;20030;-71
2023/07/21 21:19:30;;;;;;;1.58;1.38;;;;;;;;;;8236404;28;20487;-71
2023/07/21 21:23:30;;;;;;;2.05;1.23;;;;;;;;;;8238343;28;20502;-71
2023/07/21 21:27:30;;;;;;;1.48;1.23;;;;;;;;;;8237230;28;20038;-71
2023/07/21 21:31:31;;;;;;;2.83;1.40;;;;;;;;;;8235400;28;20783;-71
2023/07/21 21:35:31;;;;;;;2.42;1.30;;;;;;;;;;8233723;28;20049;-71
2023/07/21 21:39:31;;;;;;;1.63;1.40;;;;;;;;;;8239700;28;20021;-71
2023/07/21 21:43:31;;;;;;;1.58;1.30;;;;;;;;;;8237636;28;20499;-71
2023/07/21 21:47:32;;;;;;;1.50;1.40;;;;;;;;;;8239503;28;20085;-71
2023/07/21 21:51:32;;;;;;;3.72;1.15;;;;;;;;;;8237424;28;20022;-71
2023/07/21 21:55:33;;;;;;;1.87;1.50;;;;;;;;;;8237743;28;20021;-71
2023/07/21 21:59:33;;;;;;;1.48;1.38;;;;;;;;;;8239458;28;20036;-71
2023/07/21 22:03:36;;;;;;;1.58;1.48;;;;;;;;;;8239539;28;20038;-71
2023/07/21 22:07:36;;;;;;;4.17;1.27;;;;;;;;;;8238251;28;20030;-71
2023/07/21 22:11:36;;;;;;;1.50;1.40;;;;;;;;;;8235706;28;20312;-71
2023/07/21 22:15:37;;;;;;;2.17;1.35;;;;;;;;;;8236541;28;20080;-71
2023/07/21 22:19:37;;;;;;;3.17;1.50;;;;;;;;;;8235367;28;20026;-71
2023/07/21 22:23:37;;;;;;;3.05;1.40;;;;;;;;;;8233685;28;20034;-71
2023/07/21 22:27:38;;;;;;;3.53;1.60;;;;;;;;;;8233113;28;20029;-71
2023/07/21 22:31:38;;;;;;;4.13;1.63;;;;;;;;;;8232059;28;20039;-71
2023/07/21 22:35:38;;;;;;;4.82;1.50;;;;;;;;;;8236351;28;20281;-71
2023/07/21 22:39:38;;;;;;;2.25;1.67;;;;;;;;;;8242528;28;20358;-71
2023/07/21 22:43:38;;;;;;;2.65;1.30;;;;;;;;;;8236629;28;20026;-71
2023/07/21 22:47:39;;;;;;;1.63;1.52;;;;;;;;;;8238071;28;20577;-71
2023/07/21 22:51:39;;;;;;;2.80;1.35;;;;;;;;;;8227300;28;20026;-71
2023/07/21 22:55:39;;;;;;;1.70;1.60;;;;;;;;;;8238362;28;20698;-70
2023/07/21 22:59:40;;;;;;;3.60;1.85;;;;;;;;;;8239085;28;20025;-71
2023/07/21 23:03:40;;;;;;;1.85;1.45;;;;;;;;;;8237452;28;20107;-71
2023/07/21 23:07:40;;;;;;;1.48;1.38;;;;;;;;;;8235718;28;20022;-70
2023/07/21 23:11:40;;;;;;;2.28;1.40;;;;;;;;;;8236935;28;20106;-71
2023/07/21 23:15:41;;;;;;;2.83;1.48;;;;;;;;;;8236187;28;20054;-70
2023/07/21 23:19:41;;;;;;;2.93;1.57;;;;;;;;;;8217884;28;20450;-71
2023/07/21 23:23:41;;;;;;;3.75;1.35;;;;;;;;;;8235151;28;20504;-71
2023/07/21 23:27:41;;;;;;;1.50;1.40;;;;;;;;;;8235796;28;20041;-71
2023/07/21 23:31:41;;;;;;;2.17;1.40;;;;;;;;;;8235675;28;20038;-71
2023/07/21 23:35:43;;;;;;;2.90;1.60;;;;;;;;;;8235460;28;20125;-71
2023/07/21 23:39:43;;;;;;;1.85;1.60;;;;;;;;;;8238020;28;20607;-71
2023/07/21 23:43:43;;;;;;;3.63;1.55;;;;;;;;;;8238319;28;20030;-70
2023/07/21 23:47:46;;;;;;;2.17;1.42;;;;;;;;;;8221195;28;20042;-71
2023/07/21 23:51:47;;;;;;;1.50;1.25;;;;;;;;;;8236493;28;20030;-71
2023/07/21 23:55:47;;;;;;;1.30;1.20;;;;;;;;;;8237033;28;20129;-71
2023/07/21 23:59:47;;;;;;;2.97;1.40;;;;;;;;;;8236035;28;20105;-70
